Time,TemperatureF,DewpointF,PressureIn,WindDirection,WindDirectionDegrees,WindSpeedMPH,WindSpeedGustMPH,Humidity,HourlyPrecipIn,Conditions,Clouds,dailyrainin,SoftwareType,DateUTC
2013-04-26 00:01:00,48.8,30.5,30.22,NW,311,0.0,3.0,49,0.00,,CLR,0.00,VWS V14.01,2013-04-26 04:01:00,
2013-04-26 00:06:00,48.3,30.0,30.22,NW,312,0.0,0.0,49,0.00,,CLR,0.00,VWS V14.01,2013-04-26 04:06:00,
2013-04-26 00:11:00,47.9,30.2,30.22,NW,312,0.0,0.0,50,0.00,,CLR,0.00,VWS V14.01,2013-04-26 04:11:00,
2013-04-26 00:16:00,47.6,30.4,30.23,NW,314,0.0,0.0,51,0.00,,CLR,0.00,VWS V14.01,2013-04-26 04:16:00,
2013-04-26 00:21:00,47.5,30.3,30.22,NW,312,0.0,0.0,51,0.00,,CLR,0.00,VWS V14.01,2013-04-26 04:21:00,
2013-04-26 00:26:00,47.4,30.2,30.23,NW,312,0.0,0.0,51,0.00,,CLR,0.00,VWS V14.01,2013-04-26 04:26:00,
2013-04-26 00:31:00,47.3,30.1,30.23,NW,312,0.0,0.0,51,0.00,,CLR,0.00,VWS V14.01,2013-04-26 04:31:00,
2013-04-26 00:36:00,47.1,30.4,30.23,NW,312,0.0,0.0,52,0.00,,CLR,0.00,VWS V14.01,2013-04-26 04:36:00,
2013-04-26 00:41:00,47.0,30.3,30.23,NW,312,0.0,0.0,52,0.00,,CLR,0.00,VWS V14.01,2013-04-26 04:41:00,
2013-04-26 00:46:00,46.9,30.2,30.23,NW,312,0.0,0.0,52,0.00,,CLR,0.00,VWS V14.01,2013-04-26 04:46:00,
2013-04-26 00:51:00,46.9,30.2,30.23,NW,312,0.0,0.0,52,0.00,,CLR,0.00,VWS V14.01,2013-04-26 04:51:00,
2013-04-26 00:56:00,47.1,31.3,30.23,NW,312,0.0,0.0,54,0.00,,CLR,0.00,VWS V14.01,2013-04-26 04:56:00,
2013-04-26 01:01:00,46.9,32.9,30.23,NW,312,0.0,0.0,58,0.00,,CLR,0.00,VWS V14.01,2013-04-26 05:01:00,
2013-04-26 01:06:00,46.7,33.6,30.23,NW,311,0.0,0.0,60,0.00,,CLR,0.00,VWS V14.01,2013-04-26 05:06:00,
2013-04-26 01:11:00,46.8,34.1,30.23,NW,310,0.0,0.0,61,0.00,,CLR,0.00,VWS V14.01,2013-04-26 05:11:00,
2013-04-26 01:16:00,46.7,33.2,30.23,NW,310,0.0,0.0,59,0.00,,CLR,0.00,VWS V14.01,2013-04-26 05:16:00,
2013-04-26 01:21:00,46.7,32.7,30.23,NW,311,0.0,0.0,58,0.00,,CLR,0.00,VWS V14.01,2013-04-26 05:21:00,
2013-04-26 01:26:00,46.4,32.4,30.24,NW,311,0.0,0.0,58,0.00,,CLR,0.00,VWS V14.01,2013-04-26 05:26:00,
2013-04-26 01:31:00,46.6,31.8,30.24,NW,307,0.0,0.0,56,0.00,,CLR,0.00,VWS V14.01,2013-04-26 05:31:00,
2013-04-26 01:36:00,46.6,31.8,30.24,NW,307,0.0,0.0,56,0.00,,CLR,0.00,VWS V14.01,2013-04-26 05:36:00,
2013-04-26 01:41:00,46.1,33.0,30.24,NW,307,0.0,0.0,60,0.00,,CLR,0.00,VWS V14.01,2013-04-26 05:41:00,
2013-04-26 01:46:00,45.8,34.3,30.24,NW,307,0.0,0.0,64,0.00,,CLR,0.00,VWS V14.01,2013-04-26 05:46:00,
2013-04-26 01:51:00,45.5,34.0,30.24,NW,308,0.0,0.0,64,0.00,,CLR,0.00,VWS V14.01,2013-04-26 05:51:00,
2013-04-26 01:56:00,45.5,33.2,30.24,West,269,0.0,0.0,62,0.00,,CLR,0.00,VWS V14.01,2013-04-26 05:56:00,
2013-04-26 02:01:00,45.9,32.8,30.24,West,260,0.0,0.0,60,0.00,,CLR,0.00,VWS V14.01,2013-04-26 06:01:00,
2013-04-26 02:06:00,46.0,32.1,30.24,West,259,0.0,0.0,58,0.00,,CLR,0.00,VWS V14.01,2013-04-26 06:06:00,
2013-04-26 02:11:00,46.1,32.6,30.24,West,262,0.0,0.0,59,0.00,,CLR,0.00,VWS V14.01,2013-04-26 06:11:00,
2013-04-26 02:16:00,45.9,32.8,30.24,West,262,0.0,0.0,60,0.00,,CLR,0.00,VWS V14.01,2013-04-26 06:16:00,
2013-04-26 02:21:00,45.8,33.9,30.24,West,273,0.0,1.0,63,0.00,,CLR,0.00,VWS V14.01,2013-04-26 06:21:00,
2013-04-26 02:26:00,45.8,34.7,30.24,West,273,0.0,1.0,65,0.00,,CLR,0.00,VWS V14.01,2013-04-26 06:26:00,
2013-04-26 02:31:00,45.4,34.7,30.24,West,272,0.0,0.0,66,0.00,,CLR,0.00,VWS V14.01,2013-04-26 06:31:00,
2013-04-26 02:36:00,45.0,34.3,30.24,West,273,0.0,0.0,66,0.00,,CLR,0.00,VWS V14.01,2013-04-26 06:36:00,
2013-04-26 02:41:00,44.8,33.8,30.24,West,273,0.0,0.0,65,0.00,,CLR,0.00,VWS V14.01,2013-04-26 06:41:00,
2013-04-26 02:46:00,44.9,33.1,30.24,West,273,0.0,0.0,63,0.00,,CLR,0.00,VWS V14.01,2013-04-26 06:46:00,
2013-04-26 02:51:00,45.0,33.6,30.24,West,273,0.0,0.0,64,0.00,,CLR,0.00,VWS V14.01,2013-04-26 06:51:00,
2013-04-26 02:56:00,44.7,33.3,30.24,West,273,0.0,0.0,64,0.00,,CLR,0.00,VWS V14.01,2013-04-26 06:56:00,
2013-04-26 03:01:00,44.4,32.2,30.24,West,273,0.0,0.0,62,0.00,,CLR,0.00,VWS V14.01,2013-04-26 07:01:00,
2013-04-26 03:06:00,44.1,32.3,30.24,West,272,0.0,0.0,63,0.00,,CLR,0.00,VWS V14.01,2013-04-26 07:06:00,
2013-04-26 03:11:00,43.6,31.5,30.25,West,273,0.0,0.0,62,0.00,,CLR,0.00,VWS V14.01,2013-04-26 07:11:00,
2013-04-26 03:16:00,43.4,31.3,30.25,West,273,0.0,0.0,62,0.00,,CLR,0.00,VWS V14.01,2013-04-26 07:16:00,
2013-04-26 03:21:00,43.5,30.5,30.25,West,272,0.0,0.0,60,0.00,,CLR,0.00,VWS V14.01,2013-04-26 07:21:00,
2013-04-26 03:26:00,43.9,30.5,30.25,West,273,0.0,0.0,59,0.00,,CLR,0.00,VWS V14.01,2013-04-26 07:26:00,
2013-04-26 03:31:00,44.1,30.3,30.25,West,273,0.0,0.0,58,0.00,,CLR,0.00,VWS V14.01,2013-04-26 07:31:00,
2013-04-26 03:36:00,44.1,30.7,30.26,West,274,0.0,1.0,59,0.00,,CLR,0.00,VWS V14.01,2013-04-26 07:36:00,
2013-04-26 03:41:00,43.9,30.5,30.26,West,274,0.0,1.0,59,0.00,,CLR,0.00,VWS V14.01,2013-04-26 07:41:00,
2013-04-26 03:46:00,43.7,30.7,30.26,West,274,1.0,1.0,60,0.00,,CLR,0.00,VWS V14.01,2013-04-26 07:46:00,
2013-04-26 03:51:00,43.5,30.5,30.26,West,274,0.0,1.0,60,0.00,,CLR,0.00,VWS V14.01,2013-04-26 07:51:00,
2013-04-26 03:56:00,43.5,31.0,30.26,West,274,0.0,1.0,61,0.00,,CLR,0.00,VWS V14.01,2013-04-26 07:56:00,
2013-04-26 04:01:00,43.3,30.8,30.27,West,274,0.0,0.0,61,0.00,,CLR,0.00,VWS V14.01,2013-04-26 08:01:00,
2013-04-26 04:06:00,43.2,30.3,30.27,West,274,0.0,0.0,60,0.00,,CLR,0.00,VWS V14.01,2013-04-26 08:06:00,
2013-04-26 04:11:00,43.1,30.2,30.27,West,274,0.0,0.0,60,0.00,,CLR,0.00,VWS V14.01,2013-04-26 08:11:00,
2013-04-26 04:16:00,43.3,30.4,30.27,West,274,1.0,1.0,60,0.00,,CLR,0.00,VWS V14.01,2013-04-26 08:16:00,
2013-04-26 04:21:00,43.6,30.2,30.27,North,1,0.0,1.0,59,0.00,,CLR,0.00,VWS V14.01,2013-04-26 08:21:00,
2013-04-26 04:26:00,43.8,30.4,30.28,North,1,0.0,1.0,59,0.00,,CLR,0.00,VWS V14.01,2013-04-26 08:26:00,
2013-04-26 04:31:00,43.8,30.4,30.28,North,1,1.0,1.0,59,0.00,,CLR,0.00,VWS V14.01,2013-04-26 08:31:00,
2013-04-26 04:36:00,43.7,30.3,30.28,NW,316,0.0,1.0,59,0.00,,CLR,0.00,VWS V14.01,2013-04-26 08:36:00,
2013-04-26 04:41:00,43.5,30.1,30.28,NW,316,1.0,1.0,59,0.00,,CLR,0.00,VWS V14.01,2013-04-26 08:41:00,
2013-04-26 04:46:00,43.5,30.1,30.29,NW,317,0.0,0.0,59,0.00,,CLR,0.00,VWS V14.01,2013-04-26 08:46:00,
2013-04-26 04:51:00,43.5,30.1,30.29,NW,316,0.0,1.0,59,0.00,,CLR,0.00,VWS V14.01,2013-04-26 08:51:00,
2013-04-26 04:56:00,43.4,30.0,30.29,NW,316,0.0,1.0,59,0.00,,CLR,0.00,VWS V14.01,2013-04-26 08:56:00,
2013-04-26 05:01:00,43.2,29.9,30.29,NW,316,0.0,0.0,59,0.00,,CLR,0.00,VWS V14.01,2013-04-26 09:01:00,
2013-04-26 05:06:00,42.9,30.0,30.29,NW,316,0.0,0.0,60,0.00,,CLR,0.00,VWS V14.01,2013-04-26 09:06:00,
2013-04-26 05:11:00,42.7,29.8,30.29,NW,318,0.0,0.0,60,0.00,,CLR,0.00,VWS V14.01,2013-04-26 09:11:00,
2013-04-26 05:16:00,42.7,30.2,30.30,NW,318,0.0,0.0,61,0.00,,CLR,0.00,VWS V14.01,2013-04-26 09:16:00,
2013-04-26 05:21:00,42.6,30.1,30.30,NW,318,0.0,0.0,61,0.00,,CLR,0.00,VWS V14.01,2013-04-26 09:21:00,
2013-04-26 05:26:00,42.4,29.9,30.30,NW,318,0.0,0.0,61,0.00,,CLR,0.00,VWS V14.01,2013-04-26 09:26:00,
2013-04-26 05:31:00,42.4,29.9,30.30,NW,317,0.0,0.0,61,0.00,,CLR,0.00,VWS V14.01,2013-04-26 09:31:00,
2013-04-26 05:36:00,42.5,30.4,30.30,NW,316,0.0,1.0,62,0.00,,CLR,0.00,VWS V14.01,2013-04-26 09:36:00,
2013-04-26 05:41:00,42.2,29.7,30.30,NW,316,0.0,1.0,61,0.00,,CLR,0.00,VWS V14.01,2013-04-26 09:41:00,
2013-04-26 05:46:00,42.2,30.1,30.30,NW,316,0.0,0.0,62,0.00,,CLR,0.00,VWS V14.01,2013-04-26 09:46:00,
2013-04-26 05:51:00,42.2,30.1,30.30,NW,316,0.0,0.0,62,0.00,,CLR,0.00,VWS V14.01,2013-04-26 09:51:00,
2013-04-26 05:56:00,42.2,30.1,30.30,NW,316,0.0,0.0,62,0.00,,CLR,0.00,VWS V14.01,2013-04-26 09:56:00,
2013-04-26 06:01:00,42.1,30.0,30.31,NW,317,0.0,0.0,62,0.00,,FEW080,0.00,VWS V14.01,2013-04-26 10:01:00,
2013-04-26 06:06:00,41.4,29.8,30.32,NNW,344,1.0,2.0,63,0.00,,FEW080,0.00,VWS V14.01,2013-04-26 10:06:00,
2013-04-26 06:11:00,40.8,29.6,30.32,NNW,336,1.0,2.0,64,0.00,,FEW080,0.00,VWS V14.01,2013-04-26 10:11:00,
2013-04-26 06:16:00,41.0,30.1,30.32,NNW,335,1.0,2.0,65,0.00,,FEW080,0.00,VWS V14.01,2013-04-26 10:16:00,
2013-04-26 06:21:00,41.1,30.2,30.32,North,8,1.0,2.0,65,0.00,,FEW080,0.00,VWS V14.01,2013-04-26 10:21:00,
2013-04-26 06:25:00,41.3,30.4,30.33,North,1,2.0,3.0,65,0.00,,FEW080,0.00,VWS V14.01,2013-04-26 10:25:00,
2013-04-26 06:30:00,41.7,30.8,30.33,North,3,2.0,3.0,65,0.00,,FEW080,0.00,VWS V14.01,2013-04-26 10:30:00,
2013-04-26 06:35:00,41.9,31.4,30.33,NE,36,2.0,3.0,66,0.00,,FEW080,0.00,VWS V14.01,2013-04-26 10:35:00,
2013-04-26 06:40:00,41.9,32.1,30.33,NNE,13,1.0,3.0,68,0.00,,FEW080,0.00,VWS V14.01,2013-04-26 10:40:00,
2013-04-26 06:45:00,41.9,32.1,30.34,NNW,332,0.0,3.0,68,0.00,,FEW080,0.00,VWS V14.01,2013-04-26 10:45:00,
2013-04-26 06:50:00,41.9,32.5,30.34,NNE,32,1.0,2.0,69,0.00,,FEW080,0.00,VWS V14.01,2013-04-26 10:50:00,
2013-04-26 06:55:00,42.0,32.6,30.34,NNW,346,0.0,2.0,69,0.00,,FEW080,0.00,VWS V14.01,2013-04-26 10:55:00,
2013-04-26 07:00:00,42.1,32.7,30.35,NNE,20,1.0,2.0,69,0.00,,CLR,0.00,VWS V14.01,2013-04-26 11:00:00,
2013-04-26 07:05:00,42.3,32.9,30.35,NNW,346,1.0,3.0,69,0.00,,CLR,0.00,VWS V14.01,2013-04-26 11:05:00,
2013-04-26 07:10:00,42.5,33.1,30.35,North,11,0.0,5.0,69,0.00,,CLR,0.00,VWS V14.01,2013-04-26 11:10:00,
2013-04-26 07:15:00,42.8,33.3,30.35,North,3,1.0,5.0,69,0.00,,CLR,0.00,VWS V14.01,2013-04-26 11:15:00,
2013-04-26 07:20:00,43.4,33.9,30.35,North,352,1.0,3.0,69,0.00,,CLR,0.00,VWS V14.01,2013-04-26 11:20:00,
2013-04-26 07:25:00,43.9,34.0,30.36,NNE,13,1.0,4.0,68,0.00,,CLR,0.00,VWS V14.01,2013-04-26 11:25:00,
2013-04-26 07:30:00,44.3,34.0,30.35,NNE,29,1.0,4.0,67,0.00,,CLR,0.00,VWS V14.01,2013-04-26 11:30:00,
2013-04-26 07:35:00,44.8,34.9,30.35,NE,39,0.0,2.0,68,0.00,,CLR,0.00,VWS V14.01,2013-04-26 11:35:00,
2013-04-26 07:40:00,45.3,35.0,30.36,ENE,60,1.0,3.0,67,0.00,,CLR,0.00,VWS V14.01,2013-04-26 11:40:00,
2013-04-26 07:45:00,45.6,34.9,30.36,NE,48,0.0,5.0,66,0.00,,CLR,0.00,VWS V14.01,2013-04-26 11:45:00,
2013-04-26 07:50:00,46.0,35.3,30.36,NNW,337,2.0,4.0,66,0.00,,CLR,0.00,VWS V14.01,2013-04-26 11:50:00,
2013-04-26 07:55:00,46.3,35.6,30.36,North,11,0.0,4.0,66,0.00,,CLR,0.00,VWS V14.01,2013-04-26 11:55:00,
2013-04-26 08:00:00,46.7,35.2,30.36,NNW,344,1.0,9.0,64,0.00,,CLR,0.00,VWS V14.01,2013-04-26 12:00:00,
2013-04-26 08:05:00,46.5,35.0,30.36,SE,124,2.0,6.0,64,0.00,,CLR,0.00,VWS V14.01,2013-04-26 12:05:00,
2013-04-26 08:10:00,46.3,35.2,30.37,SW,234,4.0,11.0,65,0.00,,CLR,0.00,VWS V14.01,2013-04-26 12:10:00,
2013-04-26 08:15:00,46.3,35.6,30.37,NE,38,4.0,11.0,66,0.00,,CLR,0.00,VWS V14.01,2013-04-26 12:15:00,
2013-04-26 08:20:00,46.2,35.5,30.37,NNW,340,2.0,8.0,66,0.00,,CLR,0.00,VWS V14.01,2013-04-26 12:20:00,
2013-04-26 08:25:00,46.5,35.8,30.37,WSW,245,3.0,8.0,66,0.00,,CLR,0.00,VWS V14.01,2013-04-26 12:25:00,
2013-04-26 08:30:00,46.9,35.8,30.36,NNE,22,0.0,8.0,65,0.00,,CLR,0.00,VWS V14.01,2013-04-26 12:30:00,
2013-04-26 08:35:00,47.3,36.5,30.37,WNW,302,2.0,4.0,66,0.00,,CLR,0.00,VWS V14.01,2013-04-26 12:35:00,
2013-04-26 08:40:00,47.6,36.0,30.37,NNW,335,2.0,5.0,64,0.00,,CLR,0.00,VWS V14.01,2013-04-26 12:40:00,
2013-04-26 08:45:00,48.0,36.4,30.37,NE,56,1.0,5.0,64,0.00,,CLR,0.00,VWS V14.01,2013-04-26 12:45:00,
2013-04-26 08:50:00,48.2,36.2,30.37,NW,305,4.0,5.0,63,0.00,,CLR,0.00,VWS V14.01,2013-04-26 12:50:00,
2013-04-26 08:55:00,48.2,36.2,30.37,West,274,2.0,6.0,63,0.00,,CLR,0.00,VWS V14.01,2013-04-26 12:55:00,
2013-04-26 09:00:00,48.6,37.0,30.37,WSW,239,1.0,6.0,64,0.00,,CLR,0.00,VWS V14.01,2013-04-26 13:00:00,
2013-04-26 09:05:00,49.3,36.4,30.37,ENE,75,0.0,5.0,61,0.00,,CLR,0.00,VWS V14.01,2013-04-26 13:05:00,
2013-04-26 09:10:00,49.2,35.9,30.37,NNE,30,1.0,5.0,60,0.00,,CLR,0.00,VWS V14.01,2013-04-26 13:10:00,
2013-04-26 09:15:00,49.3,36.4,30.37,NE,38,0.0,5.0,61,0.00,,CLR,0.00,VWS V14.01,2013-04-26 13:15:00,
2013-04-26 09:20:00,49.6,35.9,30.37,NNE,15,2.0,8.0,59,0.00,,CLR,0.00,VWS V14.01,2013-04-26 13:20:00,
2013-04-26 09:25:00,49.9,36.6,30.36,NNE,12,1.0,8.0,60,0.00,,CLR,0.00,VWS V14.01,2013-04-26 13:25:00,
2013-04-26 09:30:00,50.6,36.4,30.37,North,11,7.0,9.0,58,0.00,,CLR,0.00,VWS V14.01,2013-04-26 13:30:00,
2013-04-26 09:35:00,50.5,35.4,30.37,NNE,32,2.0,10.0,56,0.00,,CLR,0.00,VWS V14.01,2013-04-26 13:35:00,
2013-04-26 09:40:00,50.9,36.2,30.37,NNW,337,6.0,10.0,57,0.00,,CLR,0.00,VWS V14.01,2013-04-26 13:40:00,
2013-04-26 09:45:00,50.7,35.1,30.37,NNE,13,1.0,10.0,55,0.00,,CLR,0.00,VWS V14.01,2013-04-26 13:45:00,
2013-04-26 09:50:00,51.0,36.3,30.37,ENE,66,1.0,7.0,57,0.00,,CLR,0.00,VWS V14.01,2013-04-26 13:50:00,
2013-04-26 09:55:00,51.9,35.3,30.37,ENE,63,5.0,7.0,53,0.00,,CLR,0.00,VWS V14.01,2013-04-26 13:55:00,
2013-04-26 10:00:00,52.5,34.9,30.37,NNE,27,4.0,7.0,51,0.00,,CLR,0.00,VWS V14.01,2013-04-26 14:00:00,
2013-04-26 10:05:00,52.2,34.6,30.37,West,272,1.0,6.0,51,0.00,,CLR,0.00,VWS V14.01,2013-04-26 14:05:00,
2013-04-26 10:10:00,52.8,34.7,30.37,NE,44,1.0,6.0,50,0.00,,CLR,0.00,VWS V14.01,2013-04-26 14:10:00,
2013-04-26 10:15:00,53.6,35.4,30.37,WSW,256,0.0,6.0,50,0.00,,CLR,0.00,VWS V14.01,2013-04-26 14:15:00,
2013-04-26 10:20:00,54.0,34.8,30.37,WNW,283,1.0,4.0,48,0.00,,CLR,0.00,VWS V14.01,2013-04-26 14:20:00,
2013-04-26 10:25:00,54.7,35.9,30.36,South,191,0.0,4.0,49,0.00,,CLR,0.00,VWS V14.01,2013-04-26 14:25:00,
2013-04-26 10:30:00,55.0,35.2,30.36,WNW,287,4.0,8.0,47,0.00,,CLR,0.00,VWS V14.01,2013-04-26 14:30:00,
2013-04-26 10:35:00,54.6,34.2,30.37,ESE,109,1.0,10.0,46,0.00,,CLR,0.00,VWS V14.01,2013-04-26 14:35:00,
2013-04-26 10:40:00,54.8,34.4,30.37,West,277,1.0,10.0,46,0.00,,CLR,0.00,VWS V14.01,2013-04-26 14:40:00,
2013-04-26 10:45:00,55.2,34.2,30.37,NNE,20,2.0,10.0,45,0.00,,CLR,0.00,VWS V14.01,2013-04-26 14:45:00,
2013-04-26 10:50:00,55.5,34.0,30.37,NNW,345,1.0,8.0,44,0.00,,CLR,0.00,VWS V14.01,2013-04-26 14:50:00,
2013-04-26 10:55:00,55.6,33.5,30.37,North,359,6.0,8.0,43,0.00,,CLR,0.00,VWS V14.01,2013-04-26 14:55:00,
2013-04-26 11:00:00,55.5,32.8,30.37,NW,317,1.0,8.0,42,0.00,,CLR,0.00,VWS V14.01,2013-04-26 15:00:00,
2013-04-26 11:05:00,55.7,34.1,30.37,ENE,59,0.0,5.0,44,0.00,,CLR,0.00,VWS V14.01,2013-04-26 15:05:00,
2013-04-26 11:10:00,55.7,31.1,30.37,SE,125,4.0,5.0,39,0.00,,CLR,0.00,VWS V14.01,2013-04-26 15:10:00,
2013-04-26 11:15:00,55.7,33.0,30.36,NW,315,1.0,6.0,42,0.00,,CLR,0.00,VWS V14.01,2013-04-26 15:15:00,
2013-04-26 11:20:00,56.0,30.8,30.36,NW,309,0.0,6.0,38,0.00,,CLR,0.00,VWS V14.01,2013-04-26 15:20:00,
2013-04-26 11:25:00,56.7,31.4,30.36,ESE,115,5.0,7.0,38,0.00,,CLR,0.00,VWS V14.01,2013-04-26 15:25:00,
2013-04-26 11:30:00,56.4,29.8,30.36,ENE,76,3.0,7.0,36,0.00,,CLR,0.00,VWS V14.01,2013-04-26 15:30:00,
2013-04-26 11:35:00,56.1,28.1,30.36,ENE,71,3.0,6.0,34,0.00,,CLR,0.00,VWS V14.01,2013-04-26 15:35:00,
2013-04-26 11:40:00,56.3,26.8,30.36,North,11,5.0,8.0,32,0.00,,CLR,0.00,VWS V14.01,2013-04-26 15:40:00,
2013-04-26 11:45:00,56.4,26.9,30.36,ENE,60,2.0,8.0,32,0.00,,CLR,0.00,VWS V14.01,2013-04-26 15:45:00,
2013-04-26 11:50:00,57.1,28.3,30.36,East,82,3.0,3.0,33,0.00,,CLR,0.00,VWS V14.01,2013-04-26 15:50:00,
2013-04-26 11:55:00,57.6,29.5,30.36,ENE,74,2.0,6.0,34,0.00,,CLR,0.00,VWS V14.01,2013-04-26 15:55:00,
2013-04-26 12:00:00,57.1,26.0,30.36,NE,44,5.0,6.0,30,0.00,,CLR,0.00,VWS V14.01,2013-04-26 16:00:00,
2013-04-26 12:05:00,56.5,25.5,30.36,East,100,3.0,5.0,30,0.00,,CLR,0.00,VWS V14.01,2013-04-26 16:05:00,
2013-04-26 12:10:00,56.7,27.9,30.36,SE,128,1.0,5.0,33,0.00,,CLR,0.00,VWS V14.01,2013-04-26 16:10:00,
2013-04-26 12:15:00,58.1,27.6,30.35,NE,49,3.0,5.0,31,0.00,,CLR,0.00,VWS V14.01,2013-04-26 16:15:00,
2013-04-26 12:20:00,58.4,26.3,30.35,NE,53,2.0,4.0,29,0.00,,CLR,0.00,VWS V14.01,2013-04-26 16:20:00,
2013-04-26 12:25:00,58.4,27.9,30.35,WSW,252,1.0,8.0,31,0.00,,CLR,0.00,VWS V14.01,2013-04-26 16:25:00,
2013-04-26 12:30:00,59.6,28.1,30.35,West,264,1.0,8.0,30,0.00,,CLR,0.00,VWS V14.01,2013-04-26 16:30:00,
2013-04-26 12:35:00,59.6,27.3,30.35,NE,46,4.0,8.0,29,0.00,,CLR,0.00,VWS V14.01,2013-04-26 16:35:00,
2013-04-26 12:40:00,59.8,27.5,30.35,WSW,253,1.0,8.0,29,0.00,,CLR,0.00,VWS V14.01,2013-04-26 16:40:00,
2013-04-26 12:45:00,60.1,28.6,30.35,North,352,3.0,8.0,30,0.00,,CLR,0.00,VWS V14.01,2013-04-26 16:45:00,
2013-04-26 12:50:00,59.9,28.4,30.34,NNW,338,1.0,6.0,30,0.00,,CLR,0.00,VWS V14.01,2013-04-26 16:50:00,
2013-04-26 12:55:00,60.4,28.0,30.35,NNW,334,2.0,6.0,29,0.00,,CLR,0.00,VWS V14.01,2013-04-26 16:55:00,
2013-04-26 13:00:00,59.7,27.4,30.34,East,96,2.0,6.0,29,0.00,,CLR,0.00,VWS V14.01,2013-04-26 17:00:00,
2013-04-26 13:05:00,59.6,27.3,30.34,West,266,0.0,10.0,29,0.00,,CLR,0.00,VWS V14.01,2013-04-26 17:05:00,
2013-04-26 13:10:00,60.3,25.3,30.34,East,82,1.0,10.0,26,0.00,,CLR,0.00,VWS V14.01,2013-04-26 17:10:00,
2013-04-26 13:15:00,60.9,25.8,30.34,West,272,3.0,10.0,26,0.00,,CLR,0.00,VWS V14.01,2013-04-26 17:15:00,
2013-04-26 13:20:00,60.1,26.9,30.34,NW,316,3.0,8.0,28,0.00,,CLR,0.00,VWS V14.01,2013-04-26 17:20:00,
2013-04-26 13:25:00,60.5,27.3,30.34,WSW,245,1.0,8.0,28,0.00,,CLR,0.00,VWS V14.01,2013-04-26 17:25:00,
2013-04-26 13:30:00,60.3,28.8,30.33,WNW,297,4.0,8.0,30,0.00,,CLR,0.00,VWS V14.01,2013-04-26 17:30:00,
2013-04-26 13:35:00,60.9,29.3,30.33,WSW,250,2.0,4.0,30,0.00,,CLR,0.00,VWS V14.01,2013-04-26 17:35:00,
2013-04-26 13:40:00,61.2,27.0,30.33,WSW,253,0.0,7.0,27,0.00,,CLR,0.00,VWS V14.01,2013-04-26 17:40:00,
2013-04-26 13:45:00,60.9,27.6,30.33,NW,308,4.0,7.0,28,0.00,,CLR,0.00,VWS V14.01,2013-04-26 17:45:00,
2013-04-26 13:50:00,61.1,26.9,30.33,NW,320,1.0,5.0,27,0.00,,CLR,0.00,VWS V14.01,2013-04-26 17:50:00,
2013-04-26 13:55:00,61.7,29.1,30.33,East,92,2.0,5.0,29,0.00,,CLR,0.00,VWS V14.01,2013-04-26 17:55:00,
2013-04-26 14:00:00,61.3,27.9,30.33,NNW,330,0.0,5.0,28,0.00,,CLR,0.00,VWS V14.01,2013-04-26 18:00:00,
2013-04-26 14:05:00,61.2,27.0,30.33,North,352,0.0,10.0,27,0.00,,CLR,0.00,VWS V14.01,2013-04-26 18:05:00,
2013-04-26 14:10:00,60.0,26.8,30.33,ENE,73,3.0,10.0,28,0.00,,CLR,0.00,VWS V14.01,2013-04-26 18:10:00,
2013-04-26 14:15:00,59.7,27.4,30.32,NE,44,0.0,10.0,29,0.00,,CLR,0.00,VWS V14.01,2013-04-26 18:15:00,
2013-04-26 14:20:00,60.9,27.6,30.33,WSW,252,6.0,6.0,28,0.00,,CLR,0.00,VWS V14.01,2013-04-26 18:20:00,
2013-04-26 14:25:00,60.9,26.7,30.32,West,276,2.0,8.0,27,0.00,,CLR,0.00,VWS V14.01,2013-04-26 18:25:00,
2013-04-26 14:30:00,61.5,26.3,30.33,ENE,60,4.0,8.0,26,0.00,,CLR,0.00,VWS V14.01,2013-04-26 18:30:00,
2013-04-26 14:35:00,61.3,27.9,30.33,ENE,78,0.0,5.0,28,0.00,,CLR,0.00,VWS V14.01,2013-04-26 18:35:00,
2013-04-26 14:40:00,62.1,26.8,30.32,NE,56,1.0,10.0,26,0.00,,CLR,0.00,VWS V14.01,2013-04-26 18:40:00,
2013-04-26 14:45:00,62.3,28.8,30.32,NE,51,0.0,10.0,28,0.00,,CLR,0.00,VWS V14.01,2013-04-26 18:45:00,
2013-04-26 14:50:00,63.2,28.7,30.32,NNW,330,1.0,4.0,27,0.00,,CLR,0.00,VWS V14.01,2013-04-26 18:50:00,
2013-04-26 14:55:00,63.5,29.8,30.32,WSW,249,1.0,5.0,28,0.00,,CLR,0.00,VWS V14.01,2013-04-26 18:55:00,
2013-04-26 15:00:00,63.2,27.8,30.32,SSW,198,1.0,7.0,26,0.00,,CLR,0.00,VWS V14.01,2013-04-26 19:00:00,
2013-04-26 15:05:00,63.1,28.6,30.32,NNW,335,3.0,5.0,27,0.00,,CLR,0.00,VWS V14.01,2013-04-26 19:05:00,
2013-04-26 15:10:00,63.4,28.9,30.32,East,98,2.0,6.0,27,0.00,,CLR,0.00,VWS V14.01,2013-04-26 19:10:00,
2013-04-26 15:15:00,63.5,28.0,30.32,NNW,330,2.0,11.0,26,0.00,,CLR,0.00,VWS V14.01,2013-04-26 19:15:00,
2013-04-26 15:20:00,63.0,26.6,30.32,North,354,0.0,10.0,25,0.00,,CLR,0.00,VWS V14.01,2013-04-26 19:20:00,
2013-04-26 15:25:00,62.3,27.0,30.31,West,259,3.0,10.0,26,0.00,,CLR,0.00,VWS V14.01,2013-04-26 19:25:00,
2013-04-26 15:30:00,62.3,27.9,30.31,NE,55,2.0,10.0,27,0.00,,CLR,0.00,VWS V14.01,2013-04-26 19:30:00,
2013-04-26 15:35:00,63.0,26.6,30.31,SSE,165,1.0,4.0,25,0.00,,CLR,0.00,VWS V14.01,2013-04-26 19:35:00,
2013-04-26 15:40:00,63.1,26.7,30.31,West,280,0.0,5.0,25,0.00,,CLR,0.00,VWS V14.01,2013-04-26 19:40:00,
2013-04-26 15:45:00,63.1,26.7,30.31,WNW,291,0.0,6.0,25,0.00,,CLR,0.00,VWS V14.01,2013-04-26 19:45:00,
2013-04-26 15:50:00,63.8,27.3,30.31,North,359,3.0,4.0,25,0.00,,CLR,0.00,VWS V14.01,2013-04-26 19:50:00,
2013-04-26 15:55:00,63.8,25.3,30.31,West,276,4.0,7.0,23,0.00,,CLR,0.00,VWS V14.01,2013-04-26 19:55:00,
2013-04-26 16:00:00,63.3,26.9,30.31,SSW,207,0.0,7.0,25,0.00,,CLR,0.00,VWS V14.01,2013-04-26 20:00:00,
2013-04-26 16:05:00,63.1,24.7,30.31,East,91,3.0,6.0,23,0.00,,CLR,0.00,VWS V14.01,2013-04-26 20:05:00,
2013-04-26 16:10:00,62.3,25.1,30.31,SE,129,3.0,6.0,24,0.00,,CLR,0.00,VWS V14.01,2013-04-26 20:10:00,
2013-04-26 16:15:00,62.5,23.2,30.31,NE,56,2.0,6.0,22,0.00,,CLR,0.00,VWS V14.01,2013-04-26 20:15:00,
2013-04-26 16:20:00,62.6,24.3,30.30,West,281,1.0,3.0,23,0.00,,CLR,0.00,VWS V14.01,2013-04-26 20:20:00,
2013-04-26 16:25:00,63.1,22.6,30.31,North,350,3.0,6.0,21,0.00,,CLR,0.00,VWS V14.01,2013-04-26 20:25:00,
2013-04-26 16:30:00,63.0,23.6,30.31,WNW,298,3.0,6.0,22,0.00,,CLR,0.00,VWS V14.01,2013-04-26 20:30:00,
2013-04-26 16:35:00,63.3,22.7,30.31,NNE,18,3.0,7.0,21,0.00,,CLR,0.00,VWS V14.01,2013-04-26 20:35:00,
2013-04-26 16:40:00,63.2,22.6,30.31,West,262,1.0,7.0,21,0.00,,CLR,0.00,VWS V14.01,2013-04-26 20:40:00,
2013-04-26 16:45:00,62.6,24.3,30.31,West,272,1.0,7.0,23,0.00,,CLR,0.00,VWS V14.01,2013-04-26 20:45:00,
2013-04-26 16:50:00,63.1,23.7,30.31,West,269,6.0,6.0,22,0.00,,CLR,0.00,VWS V14.01,2013-04-26 20:50:00,
2013-04-26 16:55:00,63.2,23.8,30.31,ESE,115,3.0,8.0,22,0.00,,CLR,0.00,VWS V14.01,2013-04-26 20:55:00,
2013-04-26 17:00:00,63.2,23.8,30.31,NW,307,0.0,8.0,22,0.00,,CLR,0.00,VWS V14.01,2013-04-26 21:00:00,
2013-04-26 17:05:00,63.2,23.8,30.31,ENE,72,4.0,5.0,22,0.00,,-RA,0.00,VWS V14.01,2013-04-26 21:05:00,
2013-04-26 17:10:00,62.3,23.0,30.31,East,98,2.0,5.0,22,0.00,,-RA,0.00,VWS V14.01,2013-04-26 21:10:00,
2013-04-26 17:15:00,61.9,23.7,30.31,East,91,3.0,5.0,23,0.00,,-RA,0.00,VWS V14.01,2013-04-26 21:15:00,
2013-04-26 17:20:00,62.0,23.8,30.31,ENE,72,2.0,3.0,23,0.00,,-RA,0.00,VWS V14.01,2013-04-26 21:20:00,
2013-04-26 17:25:00,61.5,23.4,30.31,NNW,348,3.0,4.0,23,0.00,,-RA,0.00,VWS V14.01,2013-04-26 21:25:00,
2013-04-26 17:30:00,61.5,23.4,30.31,NE,49,1.0,4.0,23,0.00,,-RA,0.00,VWS V14.01,2013-04-26 21:30:00,
2013-04-26 17:35:00,61.6,23.5,30.31,North,358,3.0,5.0,23,0.00,,-RA,0.00,VWS V14.01,2013-04-26 21:35:00,
2013-04-26 17:40:00,61.4,24.3,30.31,NW,305,0.0,8.0,24,0.00,,-RA,0.00,VWS V14.01,2013-04-26 21:40:00,
2013-04-26 17:45:00,61.4,23.3,30.31,East,82,6.0,8.0,23,0.00,,-RA,0.00,VWS V14.01,2013-04-26 21:45:00,
2013-04-26 17:50:00,61.6,24.5,30.31,North,11,3.0,5.0,24,0.00,,-RA,0.00,VWS V14.01,2013-04-26 21:50:00,
2013-04-26 17:55:00,61.6,23.5,30.32,North,4,1.0,5.0,23,0.00,,-RA,0.00,VWS V14.01,2013-04-26 21:55:00,
2013-04-26 18:00:00,62.2,24.0,30.32,NNW,328,1.0,5.0,23,0.00,,-RA,0.00,VWS V14.01,2013-04-26 22:00:00,
2013-04-26 18:05:00,62.4,24.1,30.31,North,1,2.0,3.0,23,0.00,,CLR,0.00,VWS V14.01,2013-04-26 22:05:00,
2013-04-26 18:10:00,61.8,22.6,30.32,ENE,76,0.0,3.0,22,0.00,,CLR,0.00,VWS V14.01,2013-04-26 22:10:00,
2013-04-26 18:15:00,61.9,22.7,30.32,NNW,333,0.0,3.0,22,0.00,,CLR,0.00,VWS V14.01,2013-04-26 22:15:00,
2013-04-26 18:20:00,62.1,22.8,30.32,NNE,23,0.0,2.0,22,0.00,,CLR,0.00,VWS V14.01,2013-04-26 22:20:00,
2013-04-26 18:25:00,62.1,23.9,30.32,North,5,0.0,2.0,23,0.00,,CLR,0.00,VWS V14.01,2013-04-26 22:25:00,
2013-04-26 18:30:00,62.0,23.8,30.32,NW,304,3.0,4.0,23,0.00,,CLR,0.00,VWS V14.01,2013-04-26 22:30:00,
2013-04-26 18:35:00,61.3,25.2,30.32,NNE,32,0.0,3.0,25,0.00,,CLR,0.00,VWS V14.01,2013-04-26 22:35:00,
2013-04-26 18:40:00,61.0,24.0,30.32,WNW,282,0.0,3.0,24,0.00,,CLR,0.00,VWS V14.01,2013-04-26 22:40:00,
2013-04-26 18:45:00,60.5,24.5,30.32,North,359,0.0,5.0,25,0.00,,CLR,0.00,VWS V14.01,2013-04-26 22:45:00,
2013-04-26 18:50:00,60.1,26.0,30.32,WNW,301,0.0,6.0,27,0.00,,CLR,0.00,VWS V14.01,2013-04-26 22:50:00,
2013-04-26 18:55:00,59.6,24.7,30.32,NNW,330,1.0,6.0,26,0.00,,CLR,0.00,VWS V14.01,2013-04-26 22:55:00,
2013-04-26 19:00:00,59.0,24.2,30.32,NNE,27,0.0,6.0,26,0.00,,CLR,0.00,VWS V14.01,2013-04-26 23:00:00,
2013-04-26 19:05:00,58.5,24.7,30.32,East,86,1.0,2.0,27,0.00,,CLR,0.00,VWS V14.01,2013-04-26 23:05:00,
2013-04-26 19:10:00,58.0,24.2,30.32,North,354,2.0,3.0,27,0.00,,CLR,0.00,VWS V14.01,2013-04-26 23:10:00,
2013-04-26 19:15:00,57.8,24.1,30.32,West,279,0.0,3.0,27,0.00,,CLR,0.00,VWS V14.01,2013-04-26 23:15:00,
2013-04-26 19:20:00,57.5,23.8,30.32,ENE,72,0.0,2.0,27,0.00,,CLR,0.00,VWS V14.01,2013-04-26 23:20:00,
2013-04-26 19:25:00,57.2,23.5,30.32,NE,56,0.0,2.0,27,0.00,,CLR,0.00,VWS V14.01,2013-04-26 23:25:00,
2013-04-26 19:30:00,56.9,23.3,30.32,North,359,1.0,2.0,27,0.00,,CLR,0.00,VWS V14.01,2013-04-26 23:30:00,
2013-04-26 19:35:00,56.7,24.0,30.32,North,1,0.0,2.0,28,0.00,,CLR,0.00,VWS V14.01,2013-04-26 23:35:00,
2013-04-26 19:40:00,56.4,25.4,30.32,NE,39,2.0,2.0,30,0.00,,CLR,0.00,VWS V14.01,2013-04-26 23:40:00,
2013-04-26 19:45:00,56.2,24.4,30.32,North,1,1.0,2.0,29,0.00,,CLR,0.00,VWS V14.01,2013-04-26 23:45:00,
2013-04-26 19:50:00,56.0,24.2,30.32,NNE,13,0.0,2.0,29,0.00,,CLR,0.00,VWS V14.01,2013-04-26 23:50:00,
2013-04-26 20:05:00,54.8,24.8,30.33,NNE,13,0.0,0.0,31,0.00,,CLR,0.00,VWS V14.01,2013-04-27 00:05:00,
2013-04-26 20:10:00,54.5,25.3,30.33,NNE,13,0.0,1.0,32,0.00,,CLR,0.00,VWS V14.01,2013-04-27 00:10:00,
2013-04-26 20:15:00,54.2,25.0,30.33,NNE,13,0.0,1.0,32,0.00,,CLR,0.00,VWS V14.01,2013-04-27 00:15:00,
2013-04-26 20:20:00,54.0,25.6,30.34,NE,48,0.0,1.0,33,0.00,,CLR,0.00,VWS V14.01,2013-04-27 00:20:00,
2013-04-26 20:25:00,53.8,25.4,30.34,NE,48,0.0,1.0,33,0.00,,CLR,0.00,VWS V14.01,2013-04-27 00:25:00,
2013-04-26 20:30:00,53.6,25.2,30.34,North,1,0.0,2.0,33,0.00,,CLR,0.00,VWS V14.01,2013-04-27 00:30:00,
2013-04-26 20:35:00,53.4,25.8,30.34,North,1,0.0,1.0,34,0.00,,CLR,0.00,VWS V14.01,2013-04-27 00:35:00,
2013-04-26 20:40:00,53.3,25.7,30.35,North,11,0.0,2.0,34,0.00,,CLR,0.00,VWS V14.01,2013-04-27 00:40:00,
2013-04-26 20:45:00,53.2,26.3,30.35,NE,37,1.0,2.0,35,0.00,,CLR,0.00,VWS V14.01,2013-04-27 00:45:00,
2013-04-26 20:50:00,53.0,26.8,30.35,NNE,27,0.0,1.0,36,0.00,,CLR,0.00,VWS V14.01,2013-04-27 00:50:00,
2013-04-26 20:55:00,52.7,25.8,30.35,NNE,25,0.0,1.0,35,0.00,,CLR,0.00,VWS V14.01,2013-04-27 00:55:00,
2013-04-26 21:00:00,52.3,26.2,30.35,North,11,1.0,1.0,36,0.00,,CLR,0.00,VWS V14.01,2013-04-27 01:00:00,
2013-04-26 21:05:00,52.1,26.0,30.35,NE,40,0.0,2.0,36,0.00,,CLR,0.00,VWS V14.01,2013-04-27 01:05:00,
2013-04-26 21:10:00,52.1,26.0,30.35,NE,41,0.0,2.0,36,0.00,,CLR,0.00,VWS V14.01,2013-04-27 01:10:00,
2013-04-26 21:15:00,52.0,25.9,30.35,NE,41,1.0,2.0,36,0.00,,CLR,0.00,VWS V14.01,2013-04-27 01:15:00,
2013-04-26 21:20:00,51.8,26.4,30.35,NNE,18,2.0,2.0,37,0.00,,CLR,0.00,VWS V14.01,2013-04-27 01:20:00,
2013-04-26 21:25:00,51.7,26.9,30.35,NNE,13,0.0,3.0,38,0.00,,CLR,0.00,VWS V14.01,2013-04-27 01:25:00,
2013-04-26 21:30:00,51.6,26.8,30.36,NNE,14,0.0,3.0,38,0.00,,CLR,0.00,VWS V14.01,2013-04-27 01:30:00,
2013-04-26 21:35:00,51.4,27.3,30.36,NNE,23,0.0,2.0,39,0.00,,CLR,0.00,VWS V14.01,2013-04-27 01:35:00,
2013-04-26 21:40:00,51.4,27.3,30.36,ENE,71,0.0,2.0,39,0.00,,CLR,0.00,VWS V14.01,2013-04-27 01:40:00,
2013-04-26 21:45:00,51.3,27.2,30.36,NE,38,0.0,2.0,39,0.00,,CLR,0.00,VWS V14.01,2013-04-27 01:45:00,
2013-04-26 21:50:00,51.2,27.1,30.36,NE,37,1.0,2.0,39,0.00,,CLR,0.00,VWS V14.01,2013-04-27 01:50:00,
2013-04-26 21:55:00,51.2,27.1,30.36,NNE,30,2.0,2.0,39,0.00,,CLR,0.00,VWS V14.01,2013-04-27 01:55:00,
2013-04-26 22:00:00,51.2,27.1,30.36,NNE,20,0.0,3.0,39,0.00,,CLR,0.00,VWS V14.01,2013-04-27 02:00:00,
2013-04-26 22:05:00,51.1,27.0,30.36,ENE,65,2.0,4.0,39,0.00,,CLR,0.00,VWS V14.01,2013-04-27 02:05:00,
2013-04-26 22:10:00,51.0,26.9,30.36,NE,46,1.0,4.0,39,0.00,,CLR,0.00,VWS V14.01,2013-04-27 02:10:00,
2013-04-26 22:15:00,50.9,27.5,30.36,ENE,71,0.0,4.0,40,0.00,,CLR,0.00,VWS V14.01,2013-04-27 02:15:00,
2013-04-26 22:20:00,50.8,27.4,30.36,NE,54,1.0,4.0,40,0.00,,CLR,0.00,VWS V14.01,2013-04-27 02:20:00,
2013-04-26 22:25:00,50.8,27.4,30.36,ENE,66,1.0,4.0,40,0.00,,CLR,0.00,VWS V14.01,2013-04-27 02:25:00,
2013-04-26 22:30:00,50.5,27.1,30.36,NNE,13,2.0,4.0,40,0.00,,CLR,0.00,VWS V14.01,2013-04-27 02:30:00,
2013-04-26 22:35:00,50.4,27.6,30.37,NE,52,3.0,3.0,41,0.00,,CLR,0.00,VWS V14.01,2013-04-27 02:35:00,
2013-04-26 22:40:00,50.4,28.2,30.37,NE,50,1.0,4.0,42,0.00,,CLR,0.00,VWS V14.01,2013-04-27 02:40:00,
2013-04-26 22:45:00,50.2,28.0,30.37,NNE,13,2.0,4.0,42,0.00,,CLR,0.00,VWS V14.01,2013-04-27 02:45:00,
2013-04-26 22:50:00,49.9,28.3,30.36,East,84,1.0,2.0,43,0.00,,CLR,0.00,VWS V14.01,2013-04-27 02:50:00,
2013-04-26 22:55:00,49.7,28.7,30.37,NNE,18,1.0,4.0,44,0.00,,CLR,0.00,VWS V14.01,2013-04-27 02:55:00,
2013-04-26 23:00:00,49.6,29.1,30.37,North,357,3.0,4.0,45,0.00,,CLR,0.00,VWS V14.01,2013-04-27 03:00:00,
2013-04-26 23:05:00,49.3,28.9,30.37,NNE,20,1.0,3.0,45,0.00,,CLR,0.00,VWS V14.01,2013-04-27 03:05:00,
2013-04-26 23:10:00,49.1,29.2,30.37,NE,48,1.0,3.0,46,0.00,,CLR,0.00,VWS V14.01,2013-04-27 03:10:00,
2013-04-26 23:15:00,48.8,29.5,30.37,NE,47,1.0,3.0,47,0.00,,CLR,0.00,VWS V14.01,2013-04-27 03:15:00,
2013-04-26 23:20:00,48.5,29.7,30.37,North,360,2.0,2.0,48,0.00,,CLR,0.00,VWS V14.01,2013-04-27 03:20:00,
2013-04-26 23:25:00,48.2,30.0,30.37,ENE,70,0.0,2.0,49,0.00,,CLR,0.00,VWS V14.01,2013-04-27 03:25:00,
2013-04-26 23:30:00,48.1,30.4,30.37,ENE,75,0.0,2.0,50,0.00,,CLR,0.00,VWS V14.01,2013-04-27 03:30:00,
2013-04-26 23:35:00,48.0,30.8,30.37,ENE,76,0.0,3.0,51,0.00,,CLR,0.00,VWS V14.01,2013-04-27 03:35:00,
2013-04-26 23:40:00,47.8,31.0,30.37,ENE,59,0.0,3.0,52,0.00,,CLR,0.00,VWS V14.01,2013-04-27 03:40:00,
2013-04-26 23:45:00,47.6,31.3,30.37,North,11,0.0,3.0,53,0.00,,CLR,0.00,VWS V14.01,2013-04-27 03:45:00,
2013-04-26 23:50:00,47.4,31.1,30.37,NE,43,1.0,1.0,53,0.00,,CLR,0.00,VWS V14.01,2013-04-27 03:50:00,
2013-04-26 23:55:00,47.2,31.4,30.37,NNE,29,0.0,2.0,54,0.00,,CLR,0.00,VWS V14.01,2013-04-27 03:55:00,